sensor_id;sensor_type;location;lat;lon;timestamp;pressure;altitude;pressure_sealevel;temperature;humidity
56330;BME280;42236;48.058;10.632;2024-02-21T00:01:33;95690.84;;;2.37;95.32
56330;BME280;42236;48.058;10.632;2024-02-21T00:04:19;95687.09;;;2.33;95.34
56330;BME280;42236;48.058;10.632;2024-02-21T00:07:05;95682.03;;;2.31;95.52
56330;BME280;42236;48.058;10.632;2024-02-21T00:09:50;95683.09;;;2.30;94.92
56330;BME280;42236;48.058;10.632;2024-02-21T00:12:36;95673.25;;;2.26;96.58
56330;BME280;42236;48.058;10.632;2024-02-21T00:15:22;95670.56;;;2.26;95.99
56330;BME280;42236;48.058;10.632;2024-02-21T00:18:07;95668.72;;;2.26;96.63
56330;BME280;42236;48.058;10.632;2024-02-21T00:20:53;95666.56;;;2.23;98.84
56330;BME280;42236;48.058;10.632;2024-02-21T00:23:39;95656.97;;;2.22;98.45
56330;BME280;42236;48.058;10.632;2024-02-21T00:26:24;95655.38;;;2.21;98.79
56330;BME280;42236;48.058;10.632;2024-02-21T00:29:11;95652.72;;;2.26;97.51
56330;BME280;42236;48.058;10.632;2024-02-21T00:31:56;95652.75;;;2.31;97.29
56330;BME280;42236;48.058;10.632;2024-02-21T00:34:43;95649.03;;;2.32;97.72
56330;BME280;42236;48.058;10.632;2024-02-21T00:37:29;95646.38;;;2.32;97.37
56330;BME280;42236;48.058;10.632;2024-02-21T00:40:14;95650.88;;;2.32;97.68
56330;BME280;42236;48.058;10.632;2024-02-21T00:43:05;95647.16;;;2.33;98.11
56330;BME280;42236;48.058;10.632;2024-02-21T00:45:51;95654.91;;;2.34;97.89
56330;BME280;42236;48.058;10.632;2024-02-21T00:48:36;95644.25;;;2.34;97.89
56330;BME280;42236;48.058;10.632;2024-02-21T00:51:22;95638.38;;;2.38;97.92
56330;BME280;42236;48.058;10.632;2024-02-21T00:54:08;95644.81;;;2.42;98.17
56330;BME280;42236;48.058;10.632;2024-02-21T00:56:53;95638.66;;;2.46;98.04
56330;BME280;42236;48.058;10.632;2024-02-21T00:59:39;95638.69;;;2.51;98.25
56330;BME280;42236;48.058;10.632;2024-02-21T01:02:25;95640.81;;;2.54;98.20
56330;BME280;42236;48.058;10.632;2024-02-21T01:05:10;95638.94;;;2.60;98.23
56330;BME280;42236;48.058;10.632;2024-02-21T01:07:56;95638.16;;;2.65;98.57
56330;BME280;42236;48.058;10.632;2024-02-21T01:10:42;95635.50;;;2.70;97.85
56330;BME280;42236;48.058;10.632;2024-02-21T01:13:28;95636.56;;;2.74;98.87
56330;BME280;42236;48.058;10.632;2024-02-21T01:16:14;95636.03;;;2.77;99.39
56330;BME280;42236;48.058;10.632;2024-02-21T01:18:59;95627.25;;;2.76;98.48
56330;BME280;42236;48.058;10.632;2024-02-21T01:21:45;95632.56;;;2.76;98.72
56330;BME280;42236;48.058;10.632;2024-02-21T01:24:31;95632.31;;;2.78;98.65
56330;BME280;42236;48.058;10.632;2024-02-21T01:27:16;95624.84;;;2.80;98.06
56330;BME280;42236;48.058;10.632;2024-02-21T01:30:02;95620.03;;;2.82;98.22
56330;BME280;42236;48.058;10.632;2024-02-21T01:32:48;95616.34;;;2.83;98.34
56330;BME280;42236;48.058;10.632;2024-02-21T01:35:34;95613.13;;;2.81;99.08
56330;BME280;42236;48.058;10.632;2024-02-21T01:38:20;95600.59;;;2.82;98.47
56330;BME280;42236;48.058;10.632;2024-02-21T01:41:05;95599.81;;;2.81;99.06
56330;BME280;42236;48.058;10.632;2024-02-21T01:43:51;95597.13;;;2.81;98.98
56330;BME280;42236;48.058;10.632;2024-02-21T01:46:37;95597.94;;;2.82;99.02
56330;BME280;42236;48.058;10.632;2024-02-21T01:49:23;95590.47;;;2.84;98.65
56330;BME280;42236;48.058;10.632;2024-02-21T01:52:11;95585.16;;;2.84;99.63
56330;BME280;42236;48.058;10.632;2024-02-21T01:54:59;95580.06;;;2.82;99.55
56330;BME280;42236;48.058;10.632;2024-02-21T01:57:45;95573.69;;;2.78;100.00
56330;BME280;42236;48.058;10.632;2024-02-21T02:00:32;95580.09;;;2.77;100.00
56330;BME280;42236;48.058;10.632;2024-02-21T02:03:18;95578.50;;;2.76;99.99
56330;BME280;42236;48.058;10.632;2024-02-21T02:06:05;95574.22;;;2.75;99.90
56330;BME280;42236;48.058;10.632;2024-02-21T02:08:53;95572.63;;;2.74;99.75
56330;BME280;42236;48.058;10.632;2024-02-21T02:11:40;95564.09;;;2.72;100.00
56330;BME280;42236;48.058;10.632;2024-02-21T02:14:25;95575.28;;;2.74;100.00
56330;BME280;42236;48.058;10.632;2024-02-21T02:17:11;95566.22;;;2.75;99.96
56330;BME280;42236;48.058;10.632;2024-02-21T02:19:57;95557.69;;;2.73;100.00
56330;BME280;42236;48.058;10.632;2024-02-21T02:22:43;95555.03;;;2.73;100.00
56330;BME280;42236;48.058;10.632;2024-02-21T02:25:29;95552.91;;;2.70;99.82
56330;BME280;42236;48.058;10.632;2024-02-21T02:28:15;95552.38;;;2.68;100.00
56330;BME280;42236;48.058;10.632;2024-02-21T02:31:01;95547.59;;;2.65;100.00
56330;BME280;42236;48.058;10.632;2024-02-21T02:33:47;95544.69;;;2.61;100.00
56330;BME280;42236;48.058;10.632;2024-02-21T02:36:33;95546.25;;;2.57;99.60
56330;BME280;42236;48.058;10.632;2024-02-21T02:39:19;95532.66;;;2.53;100.00
56330;BME280;42236;48.058;10.632;2024-02-21T02:42:05;95530.00;;;2.53;100.00
56330;BME280;42236;48.058;10.632;2024-02-21T02:44:51;95529.75;;;2.50;100.00
56330;BME280;42236;48.058;10.632;2024-02-21T02:47:36;95524.97;;;2.47;100.00
56330;BME280;42236;48.058;10.632;2024-02-21T02:50:23;95516.97;;;2.42;100.00
56330;BME280;42236;48.058;10.632;2024-02-21T02:53:09;95515.63;;;2.39;100.00
56330;BME280;42236;48.058;10.632;2024-02-21T02:55:55;95523.63;;;2.39;100.00
56330;BME280;42236;48.058;10.632;2024-02-21T02:58:40;95510.03;;;2.35;100.00
56330;BME280;42236;48.058;10.632;2024-02-21T03:01:26;95511.91;;;2.35;100.00
56330;BME280;42236;48.058;10.632;2024-02-21T03:04:12;95499.13;;;2.32;100.00
56330;BME280;42236;48.058;10.632;2024-02-21T03:06:58;95506.84;;;2.28;100.00
56330;BME280;42236;48.058;10.632;2024-02-21T03:09:44;95515.91;;;2.27;100.00
56330;BME280;42236;48.058;10.632;2024-02-21T03:12:29;95504.44;;;2.27;100.00
56330;BME280;42236;48.058;10.632;2024-02-21T03:15:15;95504.72;;;2.25;100.00
56330;BME280;42236;48.058;10.632;2024-02-21T03:18:01;95498.88;;;2.23;100.00
56330;BME280;42236;48.058;10.632;2024-02-21T03:20:46;95491.94;;;2.22;100.00
56330;BME280;42236;48.058;10.632;2024-02-21T03:23:32;95501.53;;;2.23;100.00
56330;BME280;42236;48.058;10.632;2024-02-21T03:26:18;95500.44;;;2.24;100.00
56330;BME280;42236;48.058;10.632;2024-02-21T03:29:03;95502.84;;;2.26;100.00
56330;BME280;42236;48.058;10.632;2024-02-21T03:31:49;95507.94;;;2.27;100.00
56330;BME280;42236;48.058;10.632;2024-02-21T03:34:35;95510.31;;;2.29;100.00
56330;BME280;42236;48.058;10.632;2024-02-21T03:37:21;95505.53;;;2.31;100.00
56330;BME280;42236;48.058;10.632;2024-02-21T03:40:08;95497.53;;;2.36;100.00
56330;BME280;42236;48.058;10.632;2024-02-21T03:42:54;95497.81;;;2.40;100.00
56330;BME280;42236;48.058;10.632;2024-02-21T03:45:39;95491.69;;;2.44;100.00
56330;BME280;42236;48.058;10.632;2024-02-21T03:48:25;95496.19;;;2.49;100.00
56330;BME280;42236;48.058;10.632;2024-02-21T03:51:11;95475.94;;;2.53;100.00
56330;BME280;42236;48.058;10.632;2024-02-21T03:53:56;95489.00;;;2.54;100.00
56330;BME280;42236;48.058;10.632;2024-02-21T03:56:42;95488.47;;;2.52;100.00
56330;BME280;42236;48.058;10.632;2024-02-21T03:59:27;95480.47;;;2.52;100.00
56330;BME280;42236;48.058;10.632;2024-02-21T04:02:13;95486.34;;;2.49;100.00
56330;BME280;42236;48.058;10.632;2024-02-21T04:04:59;95484.75;;;2.48;100.00
56330;BME280;42236;48.058;10.632;2024-02-21T04:07:44;95483.41;;;2.46;100.00
56330;BME280;42236;48.058;10.632;2024-02-21T04:10:30;95481.53;;;2.46;100.00
56330;BME280;42236;48.058;10.632;2024-02-21T04:13:16;95482.34;;;2.47;100.00
56330;BME280;42236;48.058;10.632;2024-02-21T04:16:02;95481.28;;;2.48;100.00
56330;BME280;42236;48.058;10.632;2024-02-21T04:18:48;95480.50;;;2.47;100.00
56330;BME280;42236;48.058;10.632;2024-02-21T04:21:34;95466.09;;;2.43;100.00
56330;BME280;42236;48.058;10.632;2024-02-21T04:24:20;95458.13;;;2.38;100.00
56330;BME280;42236;48.058;10.632;2024-02-21T04:27:06;95449.59;;;2.31;100.00
56330;BME280;42236;48.058;10.632;2024-02-21T04:29:52;95451.19;;;2.27;100.00
56330;BME280;42236;48.058;10.632;2024-02-21T04:32:39;95455.72;;;2.26;100.00
56330;BME280;42236;48.058;10.632;2024-02-21T04:35:24;95451.19;;;2.27;100.00
56330;BME280;42236;48.058;10.632;2024-02-21T04:38:10;95451.19;;;2.27;100.00
56330;BME280;42236;48.058;10.632;2024-02-21T04:40:55;95450.94;;;2.23;99.86
56330;BME280;42236;48.058;10.632;2024-02-21T04:43:46;95445.34;;;2.20;99.82
56330;BME280;42236;48.058;10.632;2024-02-21T04:46:31;95444.84;;;2.18;99.47
56330;BME280;42236;48.058;10.632;2024-02-21T04:49:17;95436.31;;;2.10;99.91
56330;BME280;42236;48.058;10.632;2024-02-21T04:52:03;95418.22;;;2.02;99.86
56330;BME280;42236;48.058;10.632;2024-02-21T04:54:48;95413.97;;;1.96;99.74
56330;BME280;42236;48.058;10.632;2024-02-21T04:57:34;95403.59;;;1.89;100.00
56330;BME280;42236;48.058;10.632;2024-02-21T05:00:20;95401.19;;;1.83;100.00
56330;BME280;42236;48.058;10.632;2024-02-21T05:03:06;95400.13;;;1.74;100.00
56330;BME280;42236;48.058;10.632;2024-02-21T05:05:51;95386.81;;;1.68;100.00
56330;BME280;42236;48.058;10.632;2024-02-21T05:08:37;95387.91;;;1.62;100.00
56330;BME280;42236;48.058;10.632;2024-02-21T05:11:23;95392.13;;;1.58;100.00
56330;BME280;42236;48.058;10.632;2024-02-21T05:14:09;95390.53;;;1.52;100.00
56330;BME280;42236;48.058;10.632;2024-02-21T05:16:54;95388.69;;;1.47;100.00
56330;BME280;42236;48.058;10.632;2024-02-21T05:19:40;95382.00;;;1.45;100.00
56330;BME280;42236;48.058;10.632;2024-02-21T05:22:26;95382.00;;;1.45;100.00
56330;BME280;42236;48.058;10.632;2024-02-21T05:25:11;95375.63;;;1.46;100.00
56330;BME280;42236;48.058;10.632;2024-02-21T05:27:57;95378.56;;;1.49;100.00
56330;BME280;42236;48.058;10.632;2024-02-21T05:30:47;95377.22;;;1.52;100.00
56330;BME280;42236;48.058;10.632;2024-02-21T05:33:33;95371.66;;;1.54;100.00
56330;BME280;42236;48.058;10.632;2024-02-21T05:36:18;95367.66;;;1.56;100.00
56330;BME280;42236;48.058;10.632;2024-02-21T05:39:04;95362.34;;;1.56;100.00
56330;BME280;42236;48.058;10.632;2024-02-21T05:41:49;95352.00;;;1.60;100.00
56330;BME280;42236;48.058;10.632;2024-02-21T05:44:36;95346.41;;;1.61;100.00
56330;BME280;42236;48.058;10.632;2024-02-21T05:47:21;95340.56;;;1.64;100.00
56330;BME280;42236;48.058;10.632;2024-02-21T05:50:07;95339.50;;;1.65;100.00
56330;BME280;42236;48.058;10.632;2024-02-21T05:52:54;95325.66;;;1.63;100.00
56330;BME280;42236;48.058;10.632;2024-02-21T05:55:41;95326.72;;;1.62;100.00
56330;BME280;42236;48.058;10.632;2024-02-21T05:58:26;95317.94;;;1.62;100.00
56330;BME280;42236;48.058;10.632;2024-02-21T06:01:12;95320.88;;;1.60;100.00
56330;BME280;42236;48.058;10.632;2024-02-21T06:03:58;95318.75;;;1.62;100.00
56330;BME280;42236;48.058;10.632;2024-02-21T06:06:43;95321.41;;;1.62;100.00
56330;BME280;42236;48.058;10.632;2024-02-21T06:09:29;95323.00;;;1.63;100.00
56330;BME280;42236;48.058;10.632;2024-02-21T06:12:15;95324.31;;;1.66;100.00
56330;BME280;42236;48.058;10.632;2024-02-21T06:15:00;95318.22;;;1.65;100.00
56330;BME280;42236;48.058;10.632;2024-02-21T06:17:46;95315.56;;;1.65;100.00
56330;BME280;42236;48.058;10.632;2024-02-21T06:20:32;95330.44;;;1.66;100.00
56330;BME280;42236;48.058;10.632;2024-02-21T06:23:17;95322.44;;;1.66;99.93
56330;BME280;42236;48.058;10.632;2024-02-21T06:26:03;95327.25;;;1.64;99.87
56330;BME280;42236;48.058;10.632;2024-02-21T06:28:49;95338.94;;;1.63;99.63
56330;BME280;42236;48.058;10.632;2024-02-21T06:31:35;95335.25;;;1.64;99.73
56330;BME280;42236;48.058;10.632;2024-02-21T06:34:21;95338.94;;;1.63;99.74
56330;BME280;42236;48.058;10.632;2024-02-21T06:37:06;95340.56;;;1.64;99.66
56330;BME280;42236;48.058;10.632;2024-02-21T06:39:52;95337.91;;;1.69;99.73
56330;BME280;42236;48.058;10.632;2024-02-21T06:42:38;95332.84;;;1.73;99.75
56330;BME280;42236;48.058;10.632;2024-02-21T06:45:23;95335.22;;;1.80;99.79
56330;BME280;42236;48.058;10.632;2024-02-21T06:48:09;95325.38;;;1.85;99.79
56330;BME280;42236;48.058;10.632;2024-02-21T06:50:55;95321.38;;;1.93;100.00
56330;BME280;42236;48.058;10.632;2024-02-21T06:53:40;95322.97;;;1.99;100.00
56330;BME280;42236;48.058;10.632;2024-02-21T06:56:26;95320.56;;;2.08;99.74
56330;BME280;42236;48.058;10.632;2024-02-21T06:59:14;95317.63;;;2.09;100.00
56330;BME280;42236;48.058;10.632;2024-02-21T07:02:01;95316.28;;;2.07;100.00
56330;BME280;42236;48.058;10.632;2024-02-21T07:04:47;95310.72;;;2.08;100.00
56330;BME280;42236;48.058;10.632;2024-02-21T07:07:32;95303.25;;;2.10;99.91
56330;BME280;42236;48.058;10.632;2024-02-21T07:10:20;95304.03;;;2.16;99.58
56330;BME280;42236;48.058;10.632;2024-02-21T07:13:06;95296.84;;;2.17;98.77
56330;BME280;42236;48.058;10.632;2024-02-21T07:15:51;95285.16;;;2.18;98.81
56330;BME280;42236;48.058;10.632;2024-02-21T07:18:37;95287.25;;;2.21;98.07
56330;BME280;42236;48.058;10.632;2024-02-21T07:21:23;95283.50;;;2.22;97.72
56330;BME280;42236;48.058;10.632;2024-02-21T07:24:08;95280.59;;;2.23;97.63
56330;BME280;42236;48.058;10.632;2024-02-21T07:26:54;95279.81;;;2.23;97.21
56330;BME280;42236;48.058;10.632;2024-02-21T07:29:41;95284.56;;;2.26;97.41
56330;BME280;42236;48.058;10.632;2024-02-21T07:32:27;95285.09;;;2.33;96.93
56330;BME280;42236;48.058;10.632;2024-02-21T07:35:13;95285.03;;;2.43;97.10
56330;BME280;42236;48.058;10.632;2024-02-21T07:37:59;95288.47;;;2.54;97.52
56330;BME280;42236;48.058;10.632;2024-02-21T07:40:45;95289.47;;;2.63;97.14
56330;BME280;42236;48.058;10.632;2024-02-21T07:43:30;95300.88;;;2.74;96.96
56330;BME280;42236;48.058;10.632;2024-02-21T07:46:16;95289.94;;;2.81;96.02
56330;BME280;42236;48.058;10.632;2024-02-21T07:49:02;95289.09;;;2.90;96.31
56330;BME280;42236;48.058;10.632;2024-02-21T07:51:47;95279.16;;;3.01;96.40
56330;BME280;42236;48.058;10.632;2024-02-21T07:54:33;95279.91;;;3.12;95.96
56330;BME280;42236;48.058;10.632;2024-02-21T07:57:19;95285.16;;;3.22;95.22
56330;BME280;42236;48.058;10.632;2024-02-21T08:00:05;95280.81;;;3.31;94.38
56330;BME280;42236;48.058;10.632;2024-02-21T08:02:51;95277.50;;;3.45;95.00
56330;BME280;42236;48.058;10.632;2024-02-21T08:05:37;95275.84;;;3.54;94.36
56330;BME280;42236;48.058;10.632;2024-02-21T08:08:22;95269.34;;;3.65;94.02
56330;BME280;42236;48.058;10.632;2024-02-21T08:11:08;95268.16;;;3.76;93.75
56330;BME280;42236;48.058;10.632;2024-02-21T08:13:53;95262.44;;;3.88;92.68
56330;BME280;42236;48.058;10.632;2024-02-21T08:16:39;95258.88;;;3.98;91.93
56330;BME280;42236;48.058;10.632;2024-02-21T08:19:25;95251.06;;;4.06;91.39
56330;BME280;42236;48.058;10.632;2024-02-21T08:22:10;95248.00;;;4.18;91.54
56330;BME280;42236;48.058;10.632;2024-02-21T08:24:56;95237.97;;;4.29;91.35
56330;BME280;42236;48.058;10.632;2024-02-21T08:27:42;95235.41;;;4.43;91.49
56330;BME280;42236;48.058;10.632;2024-02-21T08:30:28;95235.78;;;4.55;92.06
56330;BME280;42236;48.058;10.632;2024-02-21T08:33:16;95238.56;;;4.69;91.18
56330;BME280;42236;48.058;10.632;2024-02-21T08:36:03;95236.53;;;4.80;91.26
56330;BME280;42236;48.058;10.632;2024-02-21T08:38:48;95227.84;;;4.88;91.14
56330;BME280;42236;48.058;10.632;2024-02-21T08:41:34;95231.38;;;5.02;89.98
56330;BME280;42236;48.058;10.632;2024-02-21T08:44:22;95226.63;;;5.18;90.36
56330;BME280;42236;48.058;10.632;2024-02-21T08:47:08;95221.31;;;5.32;89.97
56330;BME280;42236;48.058;10.632;2024-02-21T08:49:55;95226.41;;;5.47;89.75
56330;BME280;42236;48.058;10.632;2024-02-21T08:52:41;95219.22;;;5.62;89.43
56330;BME280;42236;48.058;10.632;2024-02-21T08:55:28;95212.28;;;5.74;88.34
56330;BME280;42236;48.058;10.632;2024-02-21T08:58:16;95209.13;;;5.86;88.43
56330;BME280;42236;48.058;10.632;2024-02-21T09:01:03;95214.34;;;5.96;87.92
56330;BME280;42236;48.058;10.632;2024-02-21T09:03:49;95210.38;;;6.08;87.55
56330;BME280;42236;48.058;10.632;2024-02-21T09:06:39;95211.78;;;6.19;87.25
56330;BME280;42236;48.058;10.632;2024-02-21T09:09:27;95224.69;;;6.31;87.83
56330;BME280;42236;48.058;10.632;2024-02-21T09:12:13;95218.31;;;6.40;87.06
56330;BME280;42236;48.058;10.632;2024-02-21T09:15:04;95211.63;;;6.52;80.99
56330;BME280;42236;48.058;10.632;2024-02-21T09:17:52;95221.06;;;6.63;80.14
56330;BME280;42236;48.058;10.632;2024-02-21T09:20:40;95207.94;;;6.75;78.89
56330;BME280;42236;48.058;10.632;2024-02-21T09:23:29;95205.81;;;6.86;78.28
56330;BME280;42236;48.058;10.632;2024-02-21T09:26:17;95204.50;;;6.97;76.11
56330;BME280;42236;48.058;10.632;2024-02-21T09:29:03;95208.22;;;7.10;75.16
56330;BME280;42236;48.058;10.632;2024-02-21T09:31:52;95201.81;;;7.20;69.87
56330;BME280;42236;48.058;10.632;2024-02-21T09:34:37;95209.81;;;7.34;72.21
56330;BME280;42236;48.058;10.632;2024-02-21T09:37:24;95212.25;;;7.44;71.37
56330;BME280;42236;48.058;10.632;2024-02-21T09:40:10;95207.25;;;7.51;67.52
56330;BME280;42236;48.058;10.632;2024-02-21T09:43:03;95207.97;;;7.65;63.78
56330;BME280;42236;48.058;10.632;2024-02-21T09:45:57;95202.81;;;7.78;66.71
56330;BME280;42236;48.058;10.632;2024-02-21T09:48:51;95199.25;;;7.91;67.83
56330;BME280;42236;48.058;10.632;2024-02-21T09:51:44;95202.16;;;8.03;67.08
56330;BME280;42236;48.058;10.632;2024-02-21T09:54:34;95194.28;;;8.16;66.71
56330;BME280;42236;48.058;10.632;2024-02-21T09:57:21;95196.09;;;8.29;67.12
56330;BME280;42236;48.058;10.632;2024-02-21T10:00:08;95183.97;;;8.40;67.47
56330;BME280;42236;48.058;10.632;2024-02-21T10:02:54;95179.41;;;8.49;67.29
56330;BME280;42236;48.058;10.632;2024-02-21T10:05:47;95178.31;;;8.59;64.26
56330;BME280;42236;48.058;10.632;2024-02-21T10:08:33;95183.06;;;8.71;66.46
56330;BME280;42236;48.058;10.632;2024-02-21T10:11:23;95165.22;;;8.75;61.57
56330;BME280;42236;48.058;10.632;2024-02-21T10:14:09;95175.34;;;8.87;63.82
56330;BME280;42236;48.058;10.632;2024-02-21T10:16:58;95168.22;;;8.91;60.25
56330;BME280;42236;48.058;10.632;2024-02-21T10:19:44;95158.88;;;8.97;61.76
56330;BME280;42236;48.058;10.632;2024-02-21T10:22:30;95160.31;;;8.94;60.91
56330;BME280;42236;48.058;10.632;2024-02-21T10:25:18;95156.50;;;9.04;61.44
56330;BME280;42236;48.058;10.632;2024-02-21T10:28:04;95165.19;;;9.10;60.46
56330;BME280;42236;48.058;10.632;2024-02-21T10:30:51;95150.31;;;9.12;59.61
56330;BME280;42236;48.058;10.632;2024-02-21T10:33:37;95152.53;;;9.19;60.85
56330;BME280;42236;48.058;10.632;2024-02-21T10:36:24;95144.13;;;9.29;60.41
56330;BME280;42236;48.058;10.632;2024-02-21T10:39:10;95142.22;;;9.38;59.98
56330;BME280;42236;48.058;10.632;2024-02-21T10:42:01;95136.66;;;9.44;55.51
56330;BME280;42236;48.058;10.632;2024-02-21T10:44:53;95142.19;;;9.47;54.46
56330;BME280;42236;48.058;10.632;2024-02-21T10:47:39;95136.63;;;9.52;58.48
56330;BME280;42236;48.058;10.632;2024-02-21T10:50:29;95123.00;;;9.57;56.86
56330;BME280;42236;48.058;10.632;2024-02-21T10:56:33;95105.97;;;9.74;56.76
56330;BME280;42236;48.058;10.632;2024-02-21T10:59:26;95105.31;;;9.86;56.06
56330;BME280;42236;48.058;10.632;2024-02-21T11:02:24;95095.13;;;9.92;57.20
56330;BME280;42236;48.058;10.632;2024-02-21T11:05:36;95082.88;;;10.03;56.32
56330;BME280;42236;48.058;10.632;2024-02-21T11:08:28;95078.38;;;10.07;56.59
56330;BME280;42236;48.058;10.632;2024-02-21T11:11:13;95069.00;;;10.13;57.03
56330;BME280;42236;48.058;10.632;2024-02-21T11:14:19;95066.78;;;10.15;53.97
56330;BME280;42236;48.058;10.632;2024-02-21T11:23:54;95058.13;;;10.31;55.54
56330;BME280;42236;48.058;10.632;2024-02-21T11:26:40;95056.38;;;10.26;54.88
56330;BME280;42236;48.058;10.632;2024-02-21T11:29:57;95051.34;;;10.24;53.15
56330;BME280;42236;48.058;10.632;2024-02-21T11:33:10;95040.84;;;10.32;54.18
56330;BME280;42236;48.058;10.632;2024-02-21T11:36:28;95034.84;;;10.47;53.71
56330;BME280;42236;48.058;10.632;2024-02-21T11:39:27;95020.38;;;10.52;53.05
56330;BME280;42236;48.058;10.632;2024-02-21T11:42:43;95022.56;;;10.58;51.67
56330;BME280;42236;48.058;10.632;2024-02-21T11:45:47;95011.56;;;10.63;53.34
56330;BME280;42236;48.058;10.632;2024-02-21T11:52:16;95005.75;;;10.74;52.88
56330;BME280;42236;48.058;10.632;2024-02-21T11:55:08;95005.06;;;10.77;52.38
56330;BME280;42236;48.058;10.632;2024-02-21T11:58:02;94998.13;;;10.76;51.06
56330;BME280;42236;48.058;10.632;2024-02-21T12:01:20;94983.50;;;10.77;48.88
56330;BME280;42236;48.058;10.632;2024-02-21T12:04:12;94978.34;;;10.84;50.05
56330;BME280;42236;48.058;10.632;2024-02-21T12:07:00;94972.97;;;10.96;51.02
56330;BME280;42236;48.058;10.632;2024-02-21T12:09:49;94962.41;;;11.03;50.98
56330;BME280;42236;48.058;10.632;2024-02-21T12:13:04;94967.34;;;11.01;43.74
56330;BME280;42236;48.058;10.632;2024-02-21T12:16:09;94961.41;;;11.08;49.39
56330;BME280;42236;48.058;10.632;2024-02-21T12:19:08;94954.22;;;11.12;50.46
56330;BME280;42236;48.058;10.632;2024-02-21T12:25:21;94949.63;;;11.25;46.37
56330;BME280;42236;48.058;10.632;2024-02-21T12:28:14;94938.25;;;11.31;50.43
56330;BME280;42236;48.058;10.632;2024-02-21T12:31:07;94935.44;;;11.40;51.00
56330;BME280;42236;48.058;10.632;2024-02-21T12:34:19;94926.44;;;11.48;50.73
56330;BME280;42236;48.058;10.632;2024-02-21T12:37:10;94924.97;;;11.51;49.49
56330;BME280;42236;48.058;10.632;2024-02-21T12:40:08;94911.34;;;11.47;49.46
56330;BME280;42236;48.058;10.632;2024-02-21T12:42:57;94915.41;;;11.41;49.32
56330;BME280;42236;48.058;10.632;2024-02-21T12:45:43;94917.97;;;11.38;49.50
56330;BME280;42236;48.058;10.632;2024-02-21T12:51:55;94911.78;;;11.49;49.76
56330;BME280;42236;48.058;10.632;2024-02-21T12:54:41;94895.69;;;11.65;49.82
56330;BME280;42236;48.058;10.632;2024-02-21T12:57:27;94891.28;;;11.61;49.12
56330;BME280;42236;48.058;10.632;2024-02-21T13:00:13;94892.06;;;11.61;49.42
56330;BME280;42236;48.058;10.632;2024-02-21T13:03:21;94885.97;;;11.64;49.00
56330;BME280;42236;48.058;10.632;2024-02-21T13:10:09;94867.63;;;11.70;47.60
56330;BME280;42236;48.058;10.632;2024-02-21T13:13:33;94863.09;;;11.74;47.68
56330;BME280;42236;48.058;10.632;2024-02-21T13:16:39;94852.50;;;11.81;48.85
56330;BME280;42236;48.058;10.632;2024-02-21T13:19:38;94844.97;;;11.87;46.23
56330;BME280;42236;48.058;10.632;2024-02-21T13:22:48;94837.66;;;11.87;44.26
56330;BME280;42236;48.058;10.632;2024-02-21T13:25:40;94843.50;;;11.89;47.36
56330;BME280;42236;48.058;10.632;2024-02-21T13:28:41;94827.28;;;11.89;49.06
56330;BME280;42236;48.058;10.632;2024-02-21T13:32:01;94814.44;;;11.86;48.28
56330;BME280;42236;48.058;10.632;2024-02-21T13:39:00;94801.94;;;11.94;46.42
56330;BME280;42236;48.058;10.632;2024-02-21T13:42:00;94800.44;;;11.97;47.92
56330;BME280;42236;48.058;10.632;2024-02-21T13:44:46;94801.56;;;11.95;49.07
56330;BME280;42236;48.058;10.632;2024-02-21T13:51:13;94788.78;;;11.80;48.47
56330;BME280;42236;48.058;10.632;2024-02-21T13:54:14;94781.44;;;11.81;47.02
56330;BME280;42236;48.058;10.632;2024-02-21T13:57:02;94774.09;;;11.93;48.58
56330;BME280;42236;48.058;10.632;2024-02-21T14:00:13;94773.50;;;12.00;45.90
56330;BME280;42236;48.058;10.632;2024-02-21T14:03:02;94759.72;;;12.05;48.58
56330;BME280;42236;48.058;10.632;2024-02-21T14:06:13;94763.13;;;12.02;48.47
56330;BME280;42236;48.058;10.632;2024-02-21T14:09:12;94760.16;;;11.91;47.84
56330;BME280;42236;48.058;10.632;2024-02-21T14:16:59;94758.88;;;12.01;47.40
56330;BME280;42236;48.058;10.632;2024-02-21T14:19:45;94758.94;;;12.05;48.41
56330;BME280;42236;48.058;10.632;2024-02-21T14:30:11;94738.00;;;12.02;45.19
56330;BME280;42236;48.058;10.632;2024-02-21T14:33:31;94728.75;;;12.03;45.65
56330;BME280;42236;48.058;10.632;2024-02-21T14:36:20;94719.28;;;12.09;48.45
56330;BME280;42236;48.058;10.632;2024-02-21T14:45:50;94707.75;;;12.12;47.96
56330;BME280;42236;48.058;10.632;2024-02-21T14:49:09;94716.38;;;12.02;43.29
56330;BME280;42236;48.058;10.632;2024-02-21T14:52:28;94710.78;;;11.94;46.45
56330;BME280;42236;48.058;10.632;2024-02-21T14:55:30;94713.63;;;11.86;47.51
56330;BME280;42236;48.058;10.632;2024-02-21T15:02:13;94700.28;;;11.77;48.30
56330;BME280;42236;48.058;10.632;2024-02-21T15:05:40;94705.56;;;11.73;45.28
56330;BME280;42236;48.058;10.632;2024-02-21T15:08:39;94704.78;;;11.73;49.48
56330;BME280;42236;48.058;10.632;2024-02-21T15:11:32;94695.34;;;11.67;49.19
56330;BME280;42236;48.058;10.632;2024-02-21T15:14:18;94691.00;;;11.62;49.85
56330;BME280;42236;48.058;10.632;2024-02-21T15:20:39;94682.41;;;11.44;50.21
56330;BME280;42236;48.058;10.632;2024-02-21T15:26:46;94687.16;;;11.35;51.06
56330;BME280;42236;48.058;10.632;2024-02-21T15:29:43;94680.53;;;11.32;50.51
56330;BME280;42236;48.058;10.632;2024-02-21T15:32:36;94685.16;;;11.32;50.74
56330;BME280;42236;48.058;10.632;2024-02-21T15:35:29;94675.50;;;11.31;51.65
56330;BME280;42236;48.058;10.632;2024-02-21T15:38:19;94679.31;;;11.30;51.79
56330;BME280;42236;48.058;10.632;2024-02-21T15:41:14;94678.09;;;11.27;50.67
56330;BME280;42236;48.058;10.632;2024-02-21T15:44:09;94673.00;;;11.26;51.92
56330;BME280;42236;48.058;10.632;2024-02-21T15:47:06;94661.69;;;11.20;51.96
56330;BME280;42236;48.058;10.632;2024-02-21T15:50:14;94669.50;;;11.09;51.82
56330;BME280;42236;48.058;10.632;2024-02-21T15:53:00;94672.75;;;11.03;51.93